sensor_id;sensor_type;location;lat;lon;timestamp;pressure;altitude;pressure_sealevel;temperature;humidity
54554;BME280;40450;55.848;-3.572;2024-01-06T00:00:05;98938.43;;;3.11;53.86
54554;BME280;40450;55.848;-3.572;2024-01-06T00:02:29;98941.28;;;3.17;54.06
54554;BME280;40450;55.848;-3.572;2024-01-06T00:04:55;98936.35;;;3.78;53.65
54554;BME280;40450;55.848;-3.572;2024-01-06T00:07:20;98941.73;;;3.43;53.26
54554;BME280;40450;55.848;-3.572;2024-01-06T00:09:51;98943.19;;;3.20;53.49
54554;BME280;40450;55.848;-3.572;2024-01-06T00:12:19;98946.28;;;3.29;53.66
54554;BME280;40450;55.848;-3.572;2024-01-06T00:14:41;98947.22;;;3.44;53.45
54554;BME280;40450;55.848;-3.572;2024-01-06T00:17:08;98948.70;;;3.64;53.29
54554;BME280;40450;55.848;-3.572;2024-01-06T00:19:31;98944.43;;;3.61;53.34
54554;BME280;40450;55.848;-3.572;2024-01-06T00:21:52;98941.98;;;4.29;52.72
54554;BME280;40450;55.848;-3.572;2024-01-06T00:24:25;98943.95;;;4.66;53.14
54554;BME280;40450;55.848;-3.572;2024-01-06T00:26:47;98940.71;;;4.58;52.27
54554;BME280;40450;55.848;-3.572;2024-01-06T00:29:13;98944.57;;;4.81;51.44
54554;BME280;40450;55.848;-3.572;2024-01-06T00:31:33;98946.56;;;5.11;51.58
54554;BME280;40450;55.848;-3.572;2024-01-06T00:33:58;98946.77;;;4.83;51.22
54554;BME280;40450;55.848;-3.572;2024-01-06T00:36:28;98948.08;;;5.13;50.95
54554;BME280;40450;55.848;-3.572;2024-01-06T00:38:54;98953.44;;;5.23;50.17
54554;BME280;40450;55.848;-3.572;2024-01-06T00:41:19;98955.81;;;5.18;50.02
54554;BME280;40450;55.848;-3.572;2024-01-06T00:43:44;98957.04;;;5.20;49.63
54554;BME280;40450;55.848;-3.572;2024-01-06T00:46:12;98962.75;;;4.83;49.31
54554;BME280;40450;55.848;-3.572;2024-01-06T00:48:30;98967.01;;;4.94;49.45
54554;BME280;40450;55.848;-3.572;2024-01-06T00:51:01;98970.20;;;5.00;49.25
54554;BME280;40450;55.848;-3.572;2024-01-06T00:53:27;98973.50;;;5.21;49.21
54554;BME280;40450;55.848;-3.572;2024-01-06T00:55:53;98977.22;;;4.25;49.82
54554;BME280;40450;55.848;-3.572;2024-01-06T00:58:12;98979.00;;;4.51;50.00
54554;BME280;40450;55.848;-3.572;2024-01-06T01:00:46;98987.16;;;3.90;50.30
54554;BME280;40450;55.848;-3.572;2024-01-06T01:03:08;98986.17;;;4.55;50.41
54554;BME280;40450;55.848;-3.572;2024-01-06T01:05:28;98991.59;;;4.25;50.45
54554;BME280;40450;55.848;-3.572;2024-01-06T01:07:58;98994.18;;;4.26;50.80
54554;BME280;40450;55.848;-3.572;2024-01-06T01:10:27;98991.88;;;4.49;50.90
54554;BME280;40450;55.848;-3.572;2024-01-06T01:12:49;98993.61;;;4.84;50.63
54554;BME280;40450;55.848;-3.572;2024-01-06T01:15:17;99001.31;;;5.39;50.77
54554;BME280;40450;55.848;-3.572;2024-01-06T01:17:39;99002.56;;;5.56;49.41
54554;BME280;40450;55.848;-3.572;2024-01-06T01:20:06;99002.20;;;5.36;49.48
54554;BME280;40450;55.848;-3.572;2024-01-06T01:22:32;99002.52;;;5.56;49.41
54554;BME280;40450;55.848;-3.572;2024-01-06T01:24:55;99005.66;;;5.69;48.97
54554;BME280;40450;55.848;-3.572;2024-01-06T01:27:21;99004.90;;;5.49;48.69
54554;BME280;40450;55.848;-3.572;2024-01-06T01:29:46;99011.21;;;5.19;48.29
54554;BME280;40450;55.848;-3.572;2024-01-06T01:32:06;99011.08;;;5.18;48.73
54554;BME280;40450;55.848;-3.572;2024-01-06T01:34:37;99009.28;;;4.91;48.83
54554;BME280;40450;55.848;-3.572;2024-01-06T01:37:05;99011.14;;;4.38;49.29
54554;BME280;40450;55.848;-3.572;2024-01-06T01:39:22;99008.74;;;4.51;49.73
54554;BME280;40450;55.848;-3.572;2024-01-06T01:41:52;99013.48;;;4.68;49.70
54554;BME280;40450;55.848;-3.572;2024-01-06T01:44:12;99019.02;;;5.31;50.25
54554;BME280;40450;55.848;-3.572;2024-01-06T01:46:46;99024.51;;;5.13;50.23
54554;BME280;40450;55.848;-3.572;2024-01-06T01:49:08;99028.56;;;5.39;49.75
54554;BME280;40450;55.848;-3.572;2024-01-06T01:51:29;99031.92;;;5.85;49.55
54554;BME280;40450;55.848;-3.572;2024-01-06T01:53:54;99042.24;;;5.84;49.04
54554;BME280;40450;55.848;-3.572;2024-01-06T01:56:19;99043.62;;;5.37;48.57
54554;BME280;40450;55.848;-3.572;2024-01-06T01:58:44;99040.89;;;5.66;49.31
54554;BME280;40450;55.848;-3.572;2024-01-06T02:01:10;99044.62;;;5.36;48.54
54554;BME280;40450;55.848;-3.572;2024-01-06T02:03:41;99047.82;;;5.42;48.44
54554;BME280;40450;55.848;-3.572;2024-01-06T02:06:01;99051.87;;;4.92;48.34
54554;BME280;40450;55.848;-3.572;2024-01-06T02:08:33;99050.16;;;5.24;48.47
54554;BME280;40450;55.848;-3.572;2024-01-06T02:10:57;99054.02;;;5.41;48.40
54554;BME280;40450;55.848;-3.572;2024-01-06T02:13:17;99053.16;;;5.58;48.65
54554;BME280;40450;55.848;-3.572;2024-01-06T02:15:47;99056.05;;;4.80;48.86
54554;BME280;40450;55.848;-3.572;2024-01-06T02:18:12;99057.32;;;4.93;49.38
54554;BME280;40450;55.848;-3.572;2024-01-06T02:20:49;99061.17;;;5.29;49.49
54554;BME280;40450;55.848;-3.572;2024-01-06T02:22:58;99060.97;;;5.67;49.07
54554;BME280;40450;55.848;-3.572;2024-01-06T02:25:23;99067.33;;;5.58;48.70
54554;BME280;40450;55.848;-3.572;2024-01-06T02:27:48;99070.76;;;5.66;49.51
54554;BME280;40450;55.848;-3.572;2024-01-06T02:30:24;99072.32;;;5.69;49.06
54554;BME280;40450;55.848;-3.572;2024-01-06T02:32:44;99075.18;;;6.33;48.61
54554;BME280;40450;55.848;-3.572;2024-01-06T02:35:09;99079.96;;;6.26;48.71
54554;BME280;40450;55.848;-3.572;2024-01-06T02:37:30;99078.44;;;6.85;47.70
54554;BME280;40450;55.848;-3.572;2024-01-06T02:39:55;99082.48;;;6.72;46.36
54554;BME280;40450;55.848;-3.572;2024-01-06T02:42:20;99085.38;;;6.88;45.78
54554;BME280;40450;55.848;-3.572;2024-01-06T02:44:45;99089.32;;;6.52;45.89
54554;BME280;40450;55.848;-3.572;2024-01-06T02:47:10;99085.93;;;6.29;46.14
54554;BME280;40450;55.848;-3.572;2024-01-06T02:49:36;99084.39;;;6.49;45.69
54554;BME280;40450;55.848;-3.572;2024-01-06T02:52:01;99087.94;;;6.78;45.09
54554;BME280;40450;55.848;-3.572;2024-01-06T02:54:26;99089.62;;;6.16;45.05
54554;BME280;40450;55.848;-3.572;2024-01-06T02:56:51;99090.82;;;5.40;45.94
54554;BME280;40450;55.848;-3.572;2024-01-06T02:59:22;99097.42;;;5.09;46.71
54554;BME280;40450;55.848;-3.572;2024-01-06T03:01:42;99099.57;;;4.27;47.95
54554;BME280;40450;55.848;-3.572;2024-01-06T03:04:07;99098.37;;;3.90;49.28
54554;BME280;40450;55.848;-3.572;2024-01-06T03:06:33;99101.15;;;3.40;50.54
54554;BME280;40450;55.848;-3.572;2024-01-06T03:08:58;99102.82;;;3.80;50.77
54554;BME280;40450;55.848;-3.572;2024-01-06T03:11:24;99108.22;;;3.99;50.68
54554;BME280;40450;55.848;-3.572;2024-01-06T03:13:48;99104.58;;;4.73;50.23
54554;BME280;40450;55.848;-3.572;2024-01-06T03:16:15;99115.47;;;4.54;51.00
54554;BME280;40450;55.848;-3.572;2024-01-06T03:18:44;99114.33;;;5.10;50.81
54554;BME280;40450;55.848;-3.572;2024-01-06T03:21:17;99114.94;;;4.84;50.28
54554;BME280;40450;55.848;-3.572;2024-01-06T03:23:29;99120.47;;;4.84;51.40
54554;BME280;40450;55.848;-3.572;2024-01-06T03:26:05;99120.07;;;5.22;50.50
54554;BME280;40450;55.848;-3.572;2024-01-06T03:28:20;99119.81;;;5.28;50.67
54554;BME280;40450;55.848;-3.572;2024-01-06T03:30:46;99121.97;;;5.45;51.23
54554;BME280;40450;55.848;-3.572;2024-01-06T03:33:11;99121.74;;;6.22;49.26
54554;BME280;40450;55.848;-3.572;2024-01-06T03:35:41;99119.10;;;5.82;48.82
54554;BME280;40450;55.848;-3.572;2024-01-06T03:38:01;99122.20;;;5.68;49.56
54554;BME280;40450;55.848;-3.572;2024-01-06T03:40:27;99124.47;;;5.63;49.33
54554;BME280;40450;55.848;-3.572;2024-01-06T03:42:52;99129.31;;;5.93;49.25
54554;BME280;40450;55.848;-3.572;2024-01-06T03:45:17;99129.21;;;5.92;48.70
54554;BME280;40450;55.848;-3.572;2024-01-06T03:47:42;99128.48;;;6.05;48.36
54554;BME280;40450;55.848;-3.572;2024-01-06T03:50:13;99135.68;;;6.16;49.08
54554;BME280;40450;55.848;-3.572;2024-01-06T03:52:35;99143.30;;;5.95;48.52
54554;BME280;40450;55.848;-3.572;2024-01-06T03:55:05;99145.68;;;6.26;48.71
54554;BME280;40450;55.848;-3.572;2024-01-06T03:57:29;99146.57;;;6.43;48.28
54554;BME280;40450;55.848;-3.572;2024-01-06T03:59:49;99149.20;;;6.91;47.89
54554;BME280;40450;55.848;-3.572;2024-01-06T04:02:19;99153.49;;;6.79;47.68
54554;BME280;40450;55.848;-3.572;2024-01-06T04:04:44;99155.08;;;6.81;47.16
54554;BME280;40450;55.848;-3.572;2024-01-06T04:07:54;99157.35;;;6.79;46.23
54554;BME280;40450;55.848;-3.572;2024-01-06T04:09:30;99159.54;;;6.77;47.01
54554;BME280;40450;55.848;-3.572;2024-01-06T04:12:02;99165.55;;;6.92;46.63
54554;BME280;40450;55.848;-3.572;2024-01-06T04:14:20;99169.83;;;6.70;46.23
54554;BME280;40450;55.848;-3.572;2024-01-06T04:16:51;99172.67;;;6.35;45.83
54554;BME280;40450;55.848;-3.572;2024-01-06T04:19:16;99173.79;;;6.82;45.58
54554;BME280;40450;55.848;-3.572;2024-01-06T04:21:36;99174.81;;;7.06;44.89
54554;BME280;40450;55.848;-3.572;2024-01-06T04:24:02;99179.22;;;6.99;45.23
54554;BME280;40450;55.848;-3.572;2024-01-06T04:26:27;99180.59;;;6.29;45.16
54554;BME280;40450;55.848;-3.572;2024-01-06T04:28:52;99183.89;;;6.43;45.03
54554;BME280;40450;55.848;-3.572;2024-01-06T04:31:22;99184.79;;;6.34;44.64
54554;BME280;40450;55.848;-3.572;2024-01-06T04:33:51;99188.94;;;6.35;45.46
54554;BME280;40450;55.848;-3.572;2024-01-06T04:36:16;99188.74;;;6.67;45.47
54554;BME280;40450;55.848;-3.572;2024-01-06T04:38:38;99192.24;;;7.08;44.80
54554;BME280;40450;55.848;-3.572;2024-01-06T04:41:07;99195.31;;;6.67;45.02
54554;BME280;40450;55.848;-3.572;2024-01-06T04:43:40;99201.06;;;6.41;44.53
54554;BME280;40450;55.848;-3.572;2024-01-06T04:45:54;99206.69;;;6.56;45.04
54554;BME280;40450;55.848;-3.572;2024-01-06T04:48:14;99210.94;;;6.78;44.54
54554;BME280;40450;55.848;-3.572;2024-01-06T04:50:45;99211.97;;;6.95;44.96
54554;BME280;40450;55.848;-3.572;2024-01-06T04:53:10;99213.32;;;7.16;44.78
54554;BME280;40450;55.848;-3.572;2024-01-06T04:55:35;99212.60;;;6.98;44.19
54554;BME280;40450;55.848;-3.572;2024-01-06T04:58:00;99212.06;;;7.06;44.15
54554;BME280;40450;55.848;-3.572;2024-01-06T05:00:29;99210.06;;;6.39;43.24
54554;BME280;40450;55.848;-3.572;2024-01-06T05:02:59;99216.01;;;5.79;43.83
54554;BME280;40450;55.848;-3.572;2024-01-06T05:05:16;99219.42;;;5.17;44.54
54554;BME280;40450;55.848;-3.572;2024-01-06T05:07:44;99219.00;;;5.56;45.28
54554;BME280;40450;55.848;-3.572;2024-01-06T05:10:10;99214.95;;;6.09;45.66
54554;BME280;40450;55.848;-3.572;2024-01-06T05:12:32;99218.14;;;6.08;45.63
54554;BME280;40450;55.848;-3.572;2024-01-06T05:14:58;99227.14;;;5.32;45.25
54554;BME280;40450;55.848;-3.572;2024-01-06T05:17:31;99227.20;;;4.94;45.97
54554;BME280;40450;55.848;-3.572;2024-01-06T05:19:43;99230.41;;;5.43;46.36
54554;BME280;40450;55.848;-3.572;2024-01-06T05:22:08;99234.33;;;5.10;46.59
54554;BME280;40450;55.848;-3.572;2024-01-06T05:24:38;99236.77;;;5.68;46.18
54554;BME280;40450;55.848;-3.572;2024-01-06T05:26:58;99240.42;;;5.09;46.67
54554;BME280;40450;55.848;-3.572;2024-01-06T05:29:29;99247.83;;;5.36;46.76
54554;BME280;40450;55.848;-3.572;2024-01-06T05:31:49;99247.38;;;5.43;46.57
54554;BME280;40450;55.848;-3.572;2024-01-06T05:34:14;99250.81;;;5.47;46.49
54554;BME280;40450;55.848;-3.572;2024-01-06T05:36:45;99255.77;;;5.45;46.60
54554;BME280;40450;55.848;-3.572;2024-01-06T05:39:13;99257.03;;;5.90;46.86
54554;BME280;40450;55.848;-3.572;2024-01-06T05:41:38;99261.45;;;5.76;45.70
54554;BME280;40450;55.848;-3.572;2024-01-06T05:43:55;99269.85;;;5.83;46.68
54554;BME280;40450;55.848;-3.572;2024-01-06T05:46:21;99270.54;;;5.93;46.61
54554;BME280;40450;55.848;-3.572;2024-01-06T05:48:53;99275.71;;;5.88;46.57
54554;BME280;40450;55.848;-3.572;2024-01-06T05:51:16;99279.95;;;6.21;45.66
54554;BME280;40450;55.848;-3.572;2024-01-06T05:53:46;99286.97;;;5.79;45.69
54554;BME280;40450;55.848;-3.572;2024-01-06T05:56:02;99289.13;;;5.51;45.60
54554;BME280;40450;55.848;-3.572;2024-01-06T05:58:27;99291.47;;;5.71;45.90
54554;BME280;40450;55.848;-3.572;2024-01-06T06:00:57;99293.39;;;5.42;45.90
54554;BME280;40450;55.848;-3.572;2024-01-06T06:03:17;99300.17;;;5.52;46.06
54554;BME280;40450;55.848;-3.572;2024-01-06T06:05:43;99301.61;;;5.76;46.04
54554;BME280;40450;55.848;-3.572;2024-01-06T06:08:08;99303.64;;;5.56;45.91
54554;BME280;40450;55.848;-3.572;2024-01-06T06:10:33;99308.59;;;5.53;46.53
54554;BME280;40450;55.848;-3.572;2024-01-06T06:12:59;99309.72;;;5.88;46.44
54554;BME280;40450;55.848;-3.572;2024-01-06T06:15:24;99311.28;;;5.82;46.00
54554;BME280;40450;55.848;-3.572;2024-01-06T06:17:51;99312.80;;;5.66;46.51
54554;BME280;40450;55.848;-3.572;2024-01-06T06:20:14;99313.80;;;5.60;45.91
54554;BME280;40450;55.848;-3.572;2024-01-06T06:22:48;99320.57;;;5.49;46.84
54554;BME280;40450;55.848;-3.572;2024-01-06T06:25:10;99319.16;;;5.57;46.66
54554;BME280;40450;55.848;-3.572;2024-01-06T06:29:57;99330.26;;;5.82;46.97
54554;BME280;40450;55.848;-3.572;2024-01-06T06:32:26;99335.06;;;5.73;46.94
54554;BME280;40450;55.848;-3.572;2024-01-06T06:34:46;99341.59;;;5.99;46.97
54554;BME280;40450;55.848;-3.572;2024-01-06T06:37:11;99341.81;;;5.70;45.66
54554;BME280;40450;55.848;-3.572;2024-01-06T06:39:37;99346.76;;;5.25;46.66
54554;BME280;40450;55.848;-3.572;2024-01-06T06:42:02;99349.95;;;5.45;47.39
54554;BME280;40450;55.848;-3.572;2024-01-06T06:44:27;99355.60;;;5.59;45.94
54554;BME280;40450;55.848;-3.572;2024-01-06T06:46:53;99357.19;;;5.68;46.82
54554;BME280;40450;55.848;-3.572;2024-01-06T06:49:23;99360.24;;;5.41;46.07
54554;BME280;40450;55.848;-3.572;2024-01-06T06:51:43;99356.75;;;4.99;45.77
54554;BME280;40450;55.848;-3.572;2024-01-06T06:54:08;99368.32;;;5.10;46.64
54554;BME280;40450;55.848;-3.572;2024-01-06T06:56:39;99377.79;;;4.77;46.27
54554;BME280;40450;55.848;-3.572;2024-01-06T06:59:11;99380.98;;;5.33;46.02
54554;BME280;40450;55.848;-3.572;2024-01-06T07:01:24;99388.57;;;4.94;46.32
54554;BME280;40450;55.848;-3.572;2024-01-06T07:03:59;99395.26;;;5.17;46.20
54554;BME280;40450;55.848;-3.572;2024-01-06T07:06:15;99399.71;;;4.86;45.61
54554;BME280;40450;55.848;-3.572;2024-01-06T07:08:40;99404.96;;;5.15;47.00
54554;BME280;40450;55.848;-3.572;2024-01-06T07:11:12;99408.19;;;5.27;46.74
54554;BME280;40450;55.848;-3.572;2024-01-06T07:13:35;99414.55;;;5.14;45.89
54554;BME280;40450;55.848;-3.572;2024-01-06T07:16:01;99415.81;;;5.07;45.46
54554;BME280;40450;55.848;-3.572;2024-01-06T07:18:21;99421.23;;;4.75;45.91
54554;BME280;40450;55.848;-3.572;2024-01-06T07:20:46;99430.68;;;4.69;46.61
54554;BME280;40450;55.848;-3.572;2024-01-06T07:23:12;99434.06;;;4.70;46.87
54554;BME280;40450;55.848;-3.572;2024-01-06T07:25:37;99436.57;;;4.67;46.73
54554;BME280;40450;55.848;-3.572;2024-01-06T07:28:10;99441.11;;;4.85;47.69
54554;BME280;40450;55.848;-3.572;2024-01-06T07:30:29;99448.42;;;5.23;47.35
54554;BME280;40450;55.848;-3.572;2024-01-06T07:32:53;99451.86;;;4.43;46.43
54554;BME280;40450;55.848;-3.572;2024-01-06T07:35:18;99453.58;;;4.86;46.52
54554;BME280;40450;55.848;-3.572;2024-01-06T07:37:43;99455.77;;;5.54;46.92
54554;BME280;40450;55.848;-3.572;2024-01-06T07:40:10;99459.68;;;5.56;46.27
54554;BME280;40450;55.848;-3.572;2024-01-06T07:42:34;99462.34;;;5.40;46.33
54554;BME280;40450;55.848;-3.572;2024-01-06T07:44:59;99465.06;;;5.68;46.84
54554;BME280;40450;55.848;-3.572;2024-01-06T07:47:24;99471.59;;;5.72;47.11
54554;BME280;40450;55.848;-3.572;2024-01-06T07:49:50;99476.38;;;5.39;46.47
54554;BME280;40450;55.848;-3.572;2024-01-06T07:52:15;99480.47;;;5.22;46.82
54554;BME280;40450;55.848;-3.572;2024-01-06T07:54:40;99484.28;;;5.41;47.05
54554;BME280;40450;55.848;-3.572;2024-01-06T07:57:06;99491.27;;;5.34;47.76
54554;BME280;40450;55.848;-3.572;2024-01-06T07:59:31;99493.49;;;5.35;47.48
54554;BME280;40450;55.848;-3.572;2024-01-06T08:01:56;99494.46;;;5.39;47.49
54554;BME280;40450;55.848;-3.572;2024-01-06T08:04:21;99499.26;;;5.97;48.09
54554;BME280;40450;55.848;-3.572;2024-01-06T08:06:48;99502.27;;;6.02;47.14
54554;BME280;40450;55.848;-3.572;2024-01-06T08:09:12;99498.88;;;5.92;45.99
54554;BME280;40450;55.848;-3.572;2024-01-06T08:11:37;99502.24;;;5.62;46.07
54554;BME280;40450;55.848;-3.572;2024-01-06T08:14:02;99508.31;;;5.24;46.35
54554;BME280;40450;55.848;-3.572;2024-01-06T08:16:28;99510.89;;;5.32;46.90
54554;BME280;40450;55.848;-3.572;2024-01-06T08:18:53;99514.68;;;4.89;45.74
54554;BME280;40450;55.848;-3.572;2024-01-06T08:21:18;99523.22;;;4.97;46.73
54554;BME280;40450;55.848;-3.572;2024-01-06T08:23:43;99524.36;;;5.44;46.87
54554;BME280;40450;55.848;-3.572;2024-01-06T08:26:16;99525.53;;;5.72;46.47
54554;BME280;40450;55.848;-3.572;2024-01-06T08:28:42;99531.20;;;5.57;45.32
54554;BME280;40450;55.848;-3.572;2024-01-06T08:31:05;99534.12;;;5.54;45.35
54554;BME280;40450;55.848;-3.572;2024-01-06T08:33:30;99533.87;;;5.24;45.63
54554;BME280;40450;55.848;-3.572;2024-01-06T08:35:51;99534.40;;;5.33;44.73
54554;BME280;40450;55.848;-3.572;2024-01-06T08:38:24;99535.78;;;3.85;45.18
54554;BME280;40450;55.848;-3.572;2024-01-06T08:40:46;99537.34;;;4.10;46.07
54554;BME280;40450;55.848;-3.572;2024-01-06T08:43:21;99539.20;;;3.82;46.16
54554;BME280;40450;55.848;-3.572;2024-01-06T08:45:37;99544.37;;;4.01;46.71
54554;BME280;40450;55.848;-3.572;2024-01-06T08:48:06;99548.50;;;3.77;47.10
54554;BME280;40450;55.848;-3.572;2024-01-06T08:50:32;99548.55;;;4.01;47.41
54554;BME280;40450;55.848;-3.572;2024-01-06T08:52:53;99553.56;;;3.82;47.58
54554;BME280;40450;55.848;-3.572;2024-01-06T08:55:22;99563.29;;;4.33;47.93
54554;BME280;40450;55.848;-3.572;2024-01-06T08:57:46;99564.79;;;4.30;47.74
54554;BME280;40450;55.848;-3.572;2024-01-06T09:00:09;99570.59;;;4.93;47.16
54554;BME280;40450;55.848;-3.572;2024-01-06T09:02:29;99573.88;;;5.25;46.94
54554;BME280;40450;55.848;-3.572;2024-01-06T09:05:08;99577.04;;;4.85;46.68
54554;BME280;40450;55.848;-3.572;2024-01-06T09:07:19;99576.80;;;4.83;46.30
54554;BME280;40450;55.848;-3.572;2024-01-06T09:09:50;99580.70;;;5.18;45.52
54554;BME280;40450;55.848;-3.572;2024-01-06T09:12:15;99582.25;;;5.01;45.37
54554;BME280;40450;55.848;-3.572;2024-01-06T09:14:40;99590.89;;;5.22;46.06
54554;BME280;40450;55.848;-3.572;2024-01-06T09:17:06;99591.53;;;5.22;45.80
54554;BME280;40450;55.848;-3.572;2024-01-06T09:19:26;99593.73;;;4.99;45.36
54554;BME280;40450;55.848;-3.572;2024-01-06T09:21:56;99595.85;;;5.29;45.48
54554;BME280;40450;55.848;-3.572;2024-01-06T09:24:21;99595.90;;;5.14;44.38
54554;BME280;40450;55.848;-3.572;2024-01-06T09:26:42;99600.83;;;4.29;44.32
54554;BME280;40450;55.848;-3.572;2024-01-06T09:29:15;99603.02;;;4.14;45.54
54554;BME280;40450;55.848;-3.572;2024-01-06T09:31:44;99609.02;;;4.16;45.47
54554;BME280;40450;55.848;-3.572;2024-01-06T09:34:09;99611.05;;;4.23;45.67
54554;BME280;40450;55.848;-3.572;2024-01-06T09:36:29;99612.16;;;4.39;46.08
54554;BME280;40450;55.848;-3.572;2024-01-06T09:38:49;99620.30;;;3.47;46.71
54554;BME280;40450;55.848;-3.572;2024-01-06T09:41:21;99621.57;;;5.09;45.38
54554;BME280;40450;55.848;-3.572;2024-01-06T09:43:40;99625.20;;;5.03;45.71
54554;BME280;40450;55.848;-3.572;2024-01-06T09:46:09;99628.38;;;5.23;45.30
54554;BME280;40450;55.848;-3.572;2024-01-06T09:48:30;99634.68;;;4.78;45.43
54554;BME280;40450;55.848;-3.572;2024-01-06T09:50:56;99637.71;;;4.82;44.62
54554;BME280;40450;55.848;-3.572;2024-01-06T09:53:21;99643.92;;;4.98;45.32
54554;BME280;40450;55.848;-3.572;2024-01-06T09:55:58;99650.05;;;4.67;45.40
54554;BME280;40450;55.848;-3.572;2024-01-06T09:58:18;99654.38;;;4.46;46.07
54554;BME280;40450;55.848;-3.572;2024-01-06T10:00:42;99655.50;;;4.93;46.28
54554;BME280;40450;55.848;-3.572;2024-01-06T10:03:16;99660.75;;;4.84;45.67
54554;BME280;40450;55.848;-3.572;2024-01-06T10:05:32;99664.50;;;4.81;45.31
54554;BME280;40450;55.848;-3.572;2024-01-06T10:07:53;99671.17;;;4.50;45.87
54554;BME280;40450;55.848;-3.572;2024-01-06T10:12:43;99676.29;;;3.55;47.60
54554;BME280;40450;55.848;-3.572;2024-01-06T10:15:13;99680.33;;;3.32;48.50
54554;BME280;40450;55.848;-3.572;2024-01-06T10:17:36;99681.33;;;3.10;49.00
54554;BME280;40450;55.848;-3.572;2024-01-06T10:20:10;99685.66;;;4.05;49.15
54554;BME280;40450;55.848;-3.572;2024-01-06T10:22:24;99688.01;;;4.15;48.98
54554;BME280;40450;55.848;-3.572;2024-01-06T10:24:50;99692.65;;;4.78;48.73
54554;BME280;40450;55.848;-3.572;2024-01-06T10:27:20;99692.53;;;4.56;48.89
54554;BME280;40450;55.848;-3.572;2024-01-06T10:29:45;99694.36;;;5.08;48.62
54554;BME280;40450;55.848;-3.572;2024-01-06T10:32:14;99696.08;;;5.07;47.98
54554;BME280;40450;55.848;-3.572;2024-01-06T10:34:36;99696.67;;;5.09;47.08
54554;BME280;40450;55.848;-3.572;2024-01-06T10:37:02;99705.06;;;4.51;47.05
54554;BME280;40450;55.848;-3.572;2024-01-06T10:39:21;99706.26;;;4.28;47.84
54554;BME280;40450;55.848;-3.572;2024-01-06T10:41:48;99703.10;;;4.75;47.85
54554;BME280;40450;55.848;-3.572;2024-01-06T10:44:13;99708.80;;;4.78;47.74
54554;BME280;40450;55.848;-3.572;2024-01-06T10:46:42;99712.66;;;4.94;46.89
54554;BME280;40450;55.848;-3.572;2024-01-06T10:49:03;99716.91;;;4.74;47.16
54554;BME280;40450;55.848;-3.572;2024-01-06T10:51:28;99720.35;;;4.51;46.84
54554;BME280;40450;55.848;-3.572;2024-01-06T10:53:53;99720.43;;;3.89;47.64
54554;BME280;40450;55.848;-3.572;2024-01-06T10:56:18;99714.61;;;4.91;47.78
54554;BME280;40450;55.848;-3.572;2024-01-06T10:58:49;99717.43;;;5.47;47.87
54554;BME280;40450;55.848;-3.572;2024-01-06T11:01:09;99712.79;;;5.95;46.77
54554;BME280;40450;55.848;-3.572;2024-01-06T11:03:43;99715.76;;;5.51;46.03
54554;BME280;40450;55.848;-3.572;2024-01-06T11:06:08;99719.39;;;5.64;46.37
54554;BME280;40450;55.848;-3.572;2024-01-06T11:08:25;99721.20;;;5.72;45.91
54554;BME280;40450;55.848;-3.572;2024-01-06T11:10:55;99721.17;;;5.93;46.18
54554;BME280;40450;55.848;-3.572;2024-01-06T11:13:22;99724.59;;;5.72;45.92
54554;BME280;40450;55.848;-3.572;2024-01-06T11:15:47;99728.61;;;5.49;45.15
54554;BME280;40450;55.848;-3.572;2024-01-06T11:25:28;99738.25;;;5.50;45.44
54554;BME280;40450;55.848;-3.572;2024-01-06T11:27:49;99738.36;;;5.56;46.67
54554;BME280;40450;55.848;-3.572;2024-01-06T11:30:22;99742.49;;;5.73;46.95
54554;BME280;40450;55.848;-3.572;2024-01-06T11:32:39;99745.26;;;6.30;46.80
54554;BME280;40450;55.848;-3.572;2024-01-06T11:35:13;99745.80;;;6.30;46.51
54554;BME280;40450;55.848;-3.572;2024-01-06T11:39:56;99747.27;;;5.58;45.85
54554;BME280;40450;55.848;-3.572;2024-01-06T11:42:32;99746.70;;;6.03;46.29
54554;BME280;40450;55.848;-3.572;2024-01-06T11:44:50;99748.19;;;5.55;45.54
54554;BME280;40450;55.848;-3.572;2024-01-06T11:47:11;99747.38;;;5.58;45.94
54554;BME280;40450;55.848;-3.572;2024-01-06T11:49:45;99749.34;;;5.45;47.19
54554;BME280;40450;55.848;-3.572;2024-01-06T11:52:14;99751.05;;;5.39;46.70
54554;BME280;40450;55.848;-3.572;2024-01-06T11:54:31;99749.99;;;5.04;47.15
54554;BME280;40450;55.848;-3.572;2024-01-06T11:57:25;99757.03;;;5.20;47.20
54554;BME280;40450;55.848;-3.572;2024-01-06T11:59:21;99757.75;;;5.13;47.31
54554;BME280;40450;55.848;-3.572;2024-01-06T12:01:42;99760.42;;;5.30;47.63
54554;BME280;40450;55.848;-3.572;2024-01-06T12:04:07;99763.38;;;5.05;48.18
54554;BME280;40450;55.848;-3.572;2024-01-06T12:06:32;99762.74;;;5.34;48.51
54554;BME280;40450;55.848;-3.572;2024-01-06T12:09:09;99763.32;;;4.98;48.90
54554;BME280;40450;55.848;-3.572;2024-01-06T12:11:33;99761.65;;;5.75;48.67
54554;BME280;40450;55.848;-3.572;2024-01-06T12:13:53;99763.37;;;6.06;49.13
54554;BME280;40450;55.848;-3.572;2024-01-06T12:16:18;99763.09;;;6.39;48.17
54554;BME280;40450;55.848;-3.572;2024-01-06T12:18:46;99763.95;;;6.08;48.05
54554;BME280;40450;55.848;-3.572;2024-01-06T12:21:09;99759.46;;;6.13;48.13
54554;BME280;40450;55.848;-3.572;2024-01-06T12:23:34;99763.05;;;5.88;48.10
54554;BME280;40450;55.848;-3.572;2024-01-06T12:26:04;99761.91;;;6.09;48.94
54554;BME280;40450;55.848;-3.572;2024-01-06T12:28:28;99761.52;;;6.66;49.08
54554;BME280;40450;55.848;-3.572;2024-01-06T12:30:45;99763.22;;;7.18;48.81
54554;BME280;40450;55.848;-3.572;2024-01-06T12:33:19;99766.47;;;7.45;47.49
54554;BME280;40450;55.848;-3.572;2024-01-06T12:35:41;99767.01;;;7.54;47.21
54554;BME280;40450;55.848;-3.572;2024-01-06T12:38:09;99762.81;;;7.42;46.96
54554;BME280;40450;55.848;-3.572;2024-01-06T12:40:32;99764.14;;;7.37;46.62
54554;BME280;40450;55.848;-3.572;2024-01-06T12:43:00;99761.69;;;7.27;45.84
54554;BME280;40450;55.848;-3.572;2024-01-06T12:45:18;99762.20;;;7.31;45.09
54554;BME280;40450;55.848;-3.572;2024-01-06T12:47:42;99762.64;;;7.21;45.33
54554;BME280;40450;55.848;-3.572;2024-01-06T12:50:13;99763.91;;;7.00;46.12
54554;BME280;40450;55.848;-3.572;2024-01-06T12:52:38;99765.08;;;7.20;45.93
54554;BME280;40450;55.848;-3.572;2024-01-06T12:55:13;99765.54;;;7.51;46.44
54554;BME280;40450;55.848;-3.572;2024-01-06T12:57:36;99772.06;;;7.19;45.94
54554;BME280;40450;55.848;-3.572;2024-01-06T12:59:49;99778.35;;;7.26;46.14
54554;BME280;40450;55.848;-3.572;2024-01-06T13:02:23;99776.70;;;7.44;46.29